Time;durP1;ratioP1;P1;durP2;ratioP2;P2;SDS_P1;SDS_P2;PMS_P1;PMS_P2;Temp;Humidity;BMP_temperature;BMP_pressure;BME280_temperature;BME280_humidity;BME280_pressure;Samples;Min_cycle;Max_cycle;Signal;HPM_P1;HPM_P2
2021/06/26 00:02:22;;;;;;;38.87;30.83;;;15.80;99.90;;;;;;4382991;32;20160;-60
2021/06/26 00:04:49;;;;;;;37.63;30.40;;;15.80;99.90;;;;;;4376516;32;20157;-63
2021/06/26 00:07:16;;;;;;;38.47;30.23;;;15.90;99.90;;;;;;4376341;32;20603;-60
2021/06/26 00:09:42;;;;;;;40.90;31.63;;;15.90;99.90;;;;;;4377040;32;20199;-60
2021/06/26 00:12:11;;;;;;;46.07;31.73;;;15.90;99.90;;;;;;4391754;32;20221;-61
2021/06/26 00:14:38;;;;;;;41.10;30.27;;;16.00;99.90;;;;;;4391896;32;20163;-60
2021/06/26 00:17:05;;;;;;;42.77;30.27;;;16.00;99.90;;;;;;4391101;32;20186;-60
2021/06/26 00:19:32;;;;;;;41.67;31.13;;;16.00;99.90;;;;;;4392085;32;20573;-63
2021/06/26 00:21:59;;;;;;;39.00;31.87;;;16.00;99.90;;;;;;4376932;32;20175;-60
2021/06/26 00:24:26;;;;;;;38.37;27.87;;;16.10;99.90;;;;;;4376092;32;20153;-60
2021/06/26 00:26:53;;;;;;;39.23;29.47;;;16.10;99.90;;;;;;4376686;32;20156;-63
2021/06/26 00:29:21;;;;;;;40.20;30.63;;;16.10;99.90;;;;;;4379489;32;20215;-60
2021/06/26 00:31:48;;;;;;;40.13;30.20;;;16.10;99.90;;;;;;4380892;32;20148;-61
2021/06/26 00:34:15;;;;;;;39.07;30.17;;;16.10;99.90;;;;;;4384663;32;20625;-62
2021/06/26 00:36:42;;;;;;;40.07;29.77;;;16.00;99.90;;;;;;4383523;32;20636;-59
2021/06/26 00:39:08;;;;;;;39.87;29.60;;;16.00;99.90;;;;;;4376400;32;20160;-60
2021/06/26 00:41:35;;;;;;;41.50;29.63;;;16.00;99.90;;;;;;4385523;32;20223;-62
2021/06/26 00:44:04;;;;;;;40.80;29.37;;;15.90;99.90;;;;;;4383382;32;20191;-61
2021/06/26 00:46:32;;;;;;;42.77;30.50;;;15.90;99.90;;;;;;4380848;32;20210;-60
2021/06/26 00:48:59;;;;;;;42.20;30.80;;;15.90;99.90;;;;;;4387929;32;20267;-61
2021/06/26 00:51:26;;;;;;;38.60;28.03;;;16.00;99.90;;;;;;4381915;32;20161;-60
2021/06/26 00:53:53;;;;;;;41.30;31.23;;;16.00;99.90;;;;;;4385676;32;20156;-60
2021/06/26 00:56:21;;;;;;;38.40;29.67;;;16.00;99.90;;;;;;4384185;32;20175;-61
2021/06/26 00:58:48;;;;;;;42.80;30.40;;;16.10;99.90;;;;;;4377477;32;20172;-60
2021/06/26 01:01:15;;;;;;;37.90;28.53;;;16.10;99.90;;;;;;4382501;32;20156;-61
2021/06/26 01:03:45;;;;;;;38.20;28.63;;;16.10;99.90;;;;;;4386183;32;20212;-61
2021/06/26 01:06:13;;;;;;;39.70;28.73;;;16.20;99.90;;;;;;4387969;32;20187;-62
2021/06/26 01:08:40;;;;;;;43.20;30.27;;;16.20;99.90;;;;;;4384688;32;20208;-62
2021/06/26 01:11:06;;;;;;;36.60;29.33;;;16.20;99.90;;;;;;4384849;32;20178;-61
2021/06/26 01:13:33;;;;;;;40.63;31.13;;;16.30;99.90;;;;;;4383921;32;20157;-60
2021/06/26 01:16:01;;;;;;;37.77;29.30;;;16.30;99.90;;;;;;4380731;32;20184;-62
2021/06/26 01:18:27;;;;;;;41.03;30.50;;;16.30;99.90;;;;;;4378895;32;20203;-59
2021/06/26 01:20:56;;;;;;;40.57;30.00;;;16.30;99.90;;;;;;4386696;32;20668;-59
2021/06/26 01:23:25;;;;;;;38.03;29.70;;;16.30;99.90;;;;;;4382077;32;20168;-60
2021/06/26 01:25:52;;;;;;;39.67;28.33;;;16.30;99.90;;;;;;4385437;32;20174;-60
2021/06/26 01:28:19;;;;;;;39.80;28.33;;;16.30;99.90;;;;;;4377469;32;20179;-60
2021/06/26 01:30:46;;;;;;;36.43;28.20;;;16.20;99.90;;;;;;4384725;32;20212;-61
2021/06/26 01:33:14;;;;;;;42.60;31.60;;;16.30;99.90;;;;;;4376319;32;20591;-61
2021/06/26 01:35:41;;;;;;;49.30;33.43;;;16.20;99.90;;;;;;4383619;32;20183;-59
2021/06/26 01:38:08;;;;;;;42.00;31.47;;;16.10;99.90;;;;;;4381201;32;20156;-60
2021/06/26 01:40:36;;;;;;;39.07;29.77;;;16.20;99.90;;;;;;4376148;32;20172;-61
2021/06/26 01:43:03;;;;;;;45.33;33.97;;;16.10;99.90;;;;;;4387538;32;20187;-62
2021/06/26 01:45:29;;;;;;;42.67;31.43;;;16.10;99.90;;;;;;4388883;32;20584;-61
2021/06/26 01:47:57;;;;;;;49.20;34.13;;;16.10;99.90;;;;;;4385935;32;20548;-60
2021/06/26 01:50:27;;;;;;;41.43;31.07;;;16.10;99.90;;;;;;4385876;32;20184;-61
2021/06/26 01:52:54;;;;;;;46.40;32.73;;;16.10;99.90;;;;;;4386430;32;20179;-62
2021/06/26 01:55:21;;;;;;;43.60;32.50;;;16.10;99.90;;;;;;4378731;32;20164;-62
2021/06/26 01:57:51;;;;;;;41.67;31.90;;;16.10;99.90;;;;;;4382606;32;20637;-63
2021/06/26 02:00:19;;;;;;;43.00;31.70;;;16.10;99.90;;;;;;4379700;32;20563;-61
2021/06/26 02:02:46;;;;;;;42.50;31.03;;;16.10;99.90;;;;;;4383728;32;20176;-61
2021/06/26 02:05:16;;;;;;;43.20;31.10;;;16.10;99.90;;;;;;4385137;32;20560;-60
2021/06/26 02:07:43;;;;;;;44.73;31.80;;;16.10;99.90;;;;;;4387506;32;20209;-60
2021/06/26 02:10:12;;;;;;;43.37;31.37;;;16.10;99.90;;;;;;4387959;32;20156;-59
2021/06/26 02:12:39;;;;;;;42.03;31.30;;;16.10;99.90;;;;;;4388887;32;20196;-59
2021/06/26 02:15:08;;;;;;;41.43;31.60;;;16.20;99.90;;;;;;4380970;32;20168;-59
2021/06/26 02:17:35;;;;;;;43.30;32.37;;;16.20;99.90;;;;;;4379421;32;20237;-60
2021/06/26 02:20:02;;;;;;;44.47;30.37;;;16.20;99.90;;;;;;4385645;32;20239;-61
2021/06/26 02:22:29;;;;;;;41.77;30.93;;;16.20;99.90;;;;;;4379150;32;20173;-59
2021/06/26 02:24:56;;;;;;;42.37;30.50;;;16.20;99.90;;;;;;4384977;32;20170;-60
2021/06/26 02:27:23;;;;;;;40.83;31.17;;;16.20;99.90;;;;;;4379206;32;20160;-60
2021/06/26 02:29:49;;;;;;;40.60;29.63;;;16.20;99.90;;;;;;4382928;32;20236;-62
2021/06/26 02:32:17;;;;;;;41.27;30.63;;;16.20;99.90;;;;;;4386500;32;20189;-60
2021/06/26 02:34:44;;;;;;;44.77;32.53;;;16.20;99.90;;;;;;4333749;32;1693587;-61
2021/06/26 02:37:11;;;;;;;50.83;35.93;;;16.20;99.90;;;;;;4387700;32;20175;-60
2021/06/26 02:39:38;;;;;;;42.50;30.73;;;16.10;99.90;;;;;;4382662;32;20216;-60
2021/06/26 02:42:05;;;;;;;43.57;31.10;;;16.10;99.90;;;;;;4382022;32;20195;-61
2021/06/26 02:44:32;;;;;;;45.70;32.73;;;16.20;99.90;;;;;;4384112;32;20171;-58
2021/06/26 02:46:59;;;;;;;42.23;32.63;;;16.10;99.90;;;;;;4380270;32;20164;-60
2021/06/26 02:49:27;;;;;;;44.10;33.43;;;16.10;99.90;;;;;;4385758;32;20220;-61
2021/06/26 02:51:53;;;;;;;44.50;32.40;;;16.10;99.90;;;;;;4381907;32;20289;-60
2021/06/26 02:54:20;;;;;;;45.13;30.67;;;16.10;99.90;;;;;;4384528;32;20178;-60
2021/06/26 02:56:47;;;;;;;45.00;32.13;;;16.10;99.90;;;;;;4384277;32;20626;-61
2021/06/26 02:59:14;;;;;;;47.53;32.57;;;16.10;99.90;;;;;;4381959;32;20176;-60
2021/06/26 03:01:42;;;;;;;42.43;32.27;;;16.20;99.90;;;;;;4384942;32;20212;-60
2021/06/26 03:04:09;;;;;;;47.80;33.77;;;16.20;99.90;;;;;;4378745;32;20200;-61
2021/06/26 03:06:38;;;;;;;43.53;32.13;;;16.10;99.90;;;;;;4384816;32;20224;-59
2021/06/26 03:09:05;;;;;;;54.87;37.80;;;16.10;99.90;;;;;;4381837;32;20172;-60
2021/06/26 03:11:34;;;;;;;45.53;33.10;;;16.10;99.90;;;;;;4377755;32;20216;-59
2021/06/26 03:14:00;;;;;;;50.70;33.60;;;16.00;99.90;;;;;;4377804;32;20619;-61
2021/06/26 03:16:27;;;;;;;42.63;32.50;;;16.00;99.90;;;;;;4377794;32;20263;-60
2021/06/26 03:18:56;;;;;;;46.50;34.17;;;16.10;99.90;;;;;;4383941;32;20227;-60
2021/06/26 03:21:23;;;;;;;44.97;32.07;;;16.10;99.90;;;;;;4382809;32;20165;-60
2021/06/26 03:23:51;;;;;;;48.83;33.77;;;16.10;99.90;;;;;;4388170;32;20221;-61
2021/06/26 03:26:18;;;;;;;43.03;32.20;;;16.10;99.90;;;;;;4378722;32;20179;-59
2021/06/26 03:28:44;;;;;;;44.57;33.50;;;16.10;99.90;;;;;;4379151;32;20168;-61
2021/06/26 03:31:12;;;;;;;49.53;34.93;;;16.10;99.90;;;;;;4389638;32;20186;-60
2021/06/26 03:33:39;;;;;;;43.67;32.47;;;16.10;99.90;;;;;;4383709;32;20215;-59
2021/06/26 03:36:06;;;;;;;42.87;32.13;;;16.10;99.90;;;;;;4382874;32;20182;-59
2021/06/26 03:38:33;;;;;;;45.47;31.93;;;16.10;99.90;;;;;;4385694;32;20172;-59
2021/06/26 03:41:03;;;;;;;46.73;33.77;;;16.10;99.90;;;;;;4381080;32;20250;-59
2021/06/26 03:43:29;;;;;;;45.83;33.80;;;16.10;99.90;;;;;;4382180;32;20175;-59
2021/06/26 03:45:56;;;;;;;46.60;32.17;;;16.10;99.90;;;;;;4389140;32;20518;-61
2021/06/26 03:48:23;;;;;;;47.60;32.57;;;16.10;99.90;;;;;;4383742;32;20168;-60
2021/06/26 03:50:50;;;;;;;45.73;34.10;;;16.10;99.90;;;;;;4378915;32;20259;-59
2021/06/26 03:53:17;;;;;;;46.33;33.73;;;16.10;99.90;;;;;;4378345;32;20165;-60
2021/06/26 03:55:51;;;;;;;47.17;34.53;;;16.10;99.90;;;;;;4381005;32;20180;-60
2021/06/26 03:58:20;;;;;;;47.07;33.30;;;16.10;99.90;;;;;;4384406;32;20179;-59
2021/06/26 04:00:47;;;;;;;46.97;34.70;;;16.10;99.90;;;;;;4387107;32;20164;-60
2021/06/26 04:03:15;;;;;;;49.50;33.27;;;16.20;99.90;;;;;;4380880;32;20183;-59
2021/06/26 04:05:42;;;;;;;45.20;33.77;;;16.20;99.90;;;;;;4381387;32;20164;-60
2021/06/26 04:08:09;;;;;;;47.87;34.00;;;16.20;99.90;;;;;;4380603;32;20214;-60
2021/06/26 04:10:36;;;;;;;50.83;35.57;;;16.30;99.90;;;;;;4380853;32;20549;-61
2021/06/26 04:13:03;;;;;;;45.77;34.23;;;16.30;99.90;;;;;;4381651;32;20178;-60
2021/06/26 04:15:31;;;;;;;46.50;34.13;;;16.30;99.90;;;;;;4384074;32;20223;-60
2021/06/26 04:17:58;;;;;;;44.60;33.53;;;16.30;99.90;;;;;;4376224;32;20161;-62
2021/06/26 04:20:25;;;;;;;48.20;34.47;;;16.30;99.90;;;;;;4387419;32;20236;-60
2021/06/26 04:22:52;;;;;;;43.93;33.53;;;16.30;99.90;;;;;;4384118;32;20220;-58
2021/06/26 04:25:20;;;;;;;47.97;34.13;;;16.30;99.90;;;;;;4379890;32;20482;-61
2021/06/26 04:27:47;;;;;;;45.17;33.57;;;16.30;99.90;;;;;;4378222;32;20533;-58
2021/06/26 04:30:15;;;;;;;47.20;33.93;;;16.30;99.90;;;;;;4383173;32;20227;-59
2021/06/26 04:32:45;;;;;;;45.17;33.27;;;16.40;99.90;;;;;;4382685;32;20179;-60
2021/06/26 04:35:14;;;;;;;40.40;31.33;;;16.40;99.90;;;;;;4375322;32;20261;-60
2021/06/26 04:37:41;;;;;;;43.67;32.10;;;16.50;99.90;;;;;;4381150;32;20179;-60
2021/06/26 04:40:09;;;;;;;40.47;31.87;;;16.60;99.90;;;;;;4384782;32;20207;-59
2021/06/26 04:42:36;;;;;;;43.67;32.77;;;16.70;99.90;;;;;;4384262;32;20186;-59
2021/06/26 04:45:07;;;;;;;50.87;34.73;;;16.80;99.90;;;;;;4380783;32;20168;-59
2021/06/26 04:47:34;;;;;;;44.37;34.13;;;16.90;99.90;;;;;;4384191;32;20172;-60
2021/06/26 04:50:03;;;;;;;39.80;31.93;;;16.90;99.90;;;;;;4380253;32;20198;-59
2021/06/26 04:52:29;;;;;;;42.60;33.03;;;16.90;99.90;;;;;;4378053;32;20164;-59
2021/06/26 04:54:56;;;;;;;43.63;32.17;;;17.00;99.90;;;;;;4384628;32;20194;-59
2021/06/26 04:57:23;;;;;;;44.10;33.77;;;17.00;99.90;;;;;;4386748;32;20164;-59
2021/06/26 04:59:50;;;;;;;41.83;32.77;;;17.00;99.90;;;;;;4387556;32;20500;-59
2021/06/26 05:02:18;;;;;;;46.93;35.10;;;17.00;99.90;;;;;;4380492;32;20181;-60
2021/06/26 05:04:44;;;;;;;47.43;34.23;;;17.00;99.90;;;;;;4377379;32;20227;-60
2021/06/26 05:07:13;;;;;;;42.67;32.67;;;17.10;99.90;;;;;;4375922;32;20179;-60
2021/06/26 05:09:40;;;;;;;44.33;33.20;;;17.10;99.90;;;;;;4378515;32;20497;-59
2021/06/26 05:12:08;;;;;;;47.77;33.23;;;17.20;99.90;;;;;;4376579;32;20220;-59
2021/06/26 05:14:34;;;;;;;46.27;36.10;;;17.30;99.90;;;;;;4380820;32;20164;-61
2021/06/26 05:17:01;;;;;;;44.47;34.07;;;17.40;99.90;;;;;;4382682;32;20216;-61
2021/06/26 05:19:28;;;;;;;43.97;33.93;;;17.50;99.90;;;;;;4380596;32;20600;-60
2021/06/26 05:21:58;;;;;;;41.47;31.43;;;17.60;99.90;;;;;;4378678;32;20159;-59
2021/06/26 05:24:28;;;;;;;43.40;33.73;;;17.70;99.90;;;;;;4380046;32;20192;-60
2021/06/26 05:26:55;;;;;;;42.70;31.77;;;17.70;99.90;;;;;;4379879;32;20160;-60
2021/06/26 05:29:22;;;;;;;44.83;32.07;;;17.80;99.90;;;;;;4382911;32;20497;-61
2021/06/26 05:31:49;;;;;;;40.10;31.03;;;17.80;99.90;;;;;;4381721;32;20243;-61
2021/06/26 05:34:15;;;;;;;40.17;31.17;;;17.60;99.90;;;;;;4378107;32;20172;-60
2021/06/26 05:36:42;;;;;;;40.10;30.37;;;17.40;99.90;;;;;;4382012;32;20176;-60
2021/06/26 05:39:09;;;;;;;43.30;33.40;;;17.40;99.90;;;;;;4380415;32;20496;-60
2021/06/26 05:41:37;;;;;;;42.07;32.20;;;17.30;99.90;;;;;;4377411;32;20172;-60
2021/06/26 05:44:05;;;;;;;44.10;33.00;;;17.30;99.90;;;;;;4380780;32;20186;-60
2021/06/26 05:46:31;;;;;;;42.63;32.10;;;17.50;99.90;;;;;;4382091;32;20220;-60
2021/06/26 05:48:58;;;;;;;38.10;29.80;;;17.80;99.90;;;;;;4382123;32;20220;-59
2021/06/26 05:51:25;;;;;;;39.33;31.73;;;18.10;99.90;;;;;;4383218;32;20186;-59
2021/06/26 05:53:52;;;;;;;43.03;30.90;;;18.50;99.90;;;;;;4382662;32;20644;-60
2021/06/26 05:56:19;;;;;;;39.53;30.43;;;18.80;99.90;;;;;;4377317;32;20172;-60
2021/06/26 05:58:47;;;;;;;40.57;30.57;;;19.10;99.90;;;;;;4383626;32;20216;-60
2021/06/26 06:01:14;;;;;;;33.83;27.60;;;19.30;99.90;;;;;;4376997;32;20627;-61
2021/06/26 06:03:41;;;;;;;39.43;30.20;;;19.40;99.90;;;;;;4375935;32;20167;-59
2021/06/26 06:06:08;;;;;;;34.63;27.63;;;19.50;99.90;;;;;;4374987;32;20165;-61
2021/06/26 06:08:35;;;;;;;38.30;28.43;;;19.50;99.90;;;;;;4379179;32;20184;-61
2021/06/26 06:11:01;;;;;;;35.50;27.07;;;19.60;99.90;;;;;;4381690;32;20696;-58
2021/06/26 06:13:28;;;;;;;32.97;27.40;;;19.60;99.90;;;;;;4380161;32;20675;-61
2021/06/26 06:15:56;;;;;;;33.83;26.43;;;19.70;99.90;;;;;;4380953;32;20198;-60
2021/06/26 06:18:26;;;;;;;32.23;26.80;;;19.90;99.90;;;;;;4382582;32;20214;-59
2021/06/26 06:20:52;;;;;;;33.20;27.40;;;20.10;99.90;;;;;;4381865;32;20195;-61
2021/06/26 06:23:19;;;;;;;31.53;24.30;;;20.10;99.90;;;;;;4378611;32;20235;-59
2021/06/26 06:25:46;;;;;;;33.30;25.77;;;20.00;99.90;;;;;;4380140;32;20160;-60
2021/06/26 06:28:13;;;;;;;35.00;26.63;;;20.10;99.90;;;;;;4380596;32;20157;-59
2021/06/26 06:30:40;;;;;;;33.10;25.20;;;20.10;99.90;;;;;;4384016;32;20208;-59
2021/06/26 06:33:08;;;;;;;32.57;25.40;;;20.20;99.90;;;;;;4381979;32;20179;-61
2021/06/26 06:35:35;;;;;;;34.93;27.47;;;20.20;99.90;;;;;;4382367;32;20180;-61
2021/06/26 06:38:02;;;;;;;34.03;26.70;;;20.20;99.90;;;;;;4381233;32;20200;-59
2021/06/26 06:40:29;;;;;;;31.60;26.50;;;20.30;99.90;;;;;;4382567;32;20179;-61
2021/06/26 06:42:56;;;;;;;32.67;25.00;;;20.50;99.90;;;;;;4381930;32;20168;-60
2021/06/26 06:45:24;;;;;;;31.87;25.90;;;20.70;99.90;;;;;;4383673;32;20168;-61
2021/06/26 06:47:51;;;;;;;31.70;24.53;;;20.90;99.90;;;;;;4382691;32;20187;-62
2021/06/26 06:50:19;;;;;;;31.77;25.60;;;20.90;99.90;;;;;;4384938;32;20160;-61
2021/06/26 06:52:47;;;;;;;34.53;26.93;;;20.90;99.90;;;;;;4383152;32;20184;-61
2021/06/26 06:55:14;;;;;;;30.50;23.80;;;21.00;99.90;;;;;;4387403;32;20604;-61
2021/06/26 06:57:41;;;;;;;34.87;25.77;;;21.00;99.90;;;;;;4384148;32;20545;-61
2021/06/26 07:00:13;;;;;;;32.20;22.90;;;21.10;99.90;;;;;;4380950;32;20640;-60
2021/06/26 07:02:40;;;;;;;27.37;22.30;;;21.20;99.90;;;;;;4382636;32;20164;-61
2021/06/26 07:05:08;;;;;;;30.47;24.40;;;21.20;99.90;;;;;;4381360;32;20204;-61
2021/06/26 07:07:37;;;;;;;32.03;23.73;;;21.20;99.90;;;;;;4380078;32;20156;-61
2021/06/26 07:10:05;;;;;;;33.87;26.03;;;21.20;99.90;;;;;;4377766;32;20171;-60
2021/06/26 07:12:32;;;;;;;30.70;24.03;;;21.30;99.90;;;;;;4382781;32;20164;-61
2021/06/26 07:14:59;;;;;;;29.37;23.57;;;21.20;99.90;;;;;;4383514;32;20183;-60
2021/06/26 07:17:26;;;;;;;29.10;22.87;;;21.30;99.90;;;;;;4381061;32;20608;-62
2021/06/26 07:19:53;;;;;;;27.57;23.13;;;21.40;99.90;;;;;;4379454;32;20165;-60
2021/06/26 07:22:20;;;;;;;26.53;21.67;;;21.60;99.90;;;;;;4382080;32;20176;-63
2021/06/26 07:24:48;;;;;;;28.27;23.53;;;21.80;99.90;;;;;;4380305;32;20180;-60
2021/06/26 07:27:15;;;;;;;26.50;21.33;;;21.90;99.90;;;;;;4383558;32;20153;-60
2021/06/26 07:29:42;;;;;;;28.67;23.47;;;22.10;99.90;;;;;;4383361;32;20551;-61
2021/06/26 07:32:09;;;;;;;28.30;23.73;;;22.20;99.90;;;;;;4382721;32;20208;-61
2021/06/26 07:34:36;;;;;;;30.30;22.87;;;22.10;99.90;;;;;;4387425;32;20534;-62
2021/06/26 07:37:03;;;;;;;23.00;20.13;;;22.10;99.90;;;;;;4379915;32;20254;-60
2021/06/26 07:39:29;;;;;;;34.53;23.50;;;22.10;99.90;;;;;;4381490;32;20164;-61
2021/06/26 07:41:58;;;;;;;25.77;22.00;;;22.20;99.90;;;;;;4385262;32;20180;-61
2021/06/26 07:44:25;;;;;;;26.67;21.50;;;22.60;99.90;;;;;;4381868;32;20175;-61
2021/06/26 07:46:52;;;;;;;25.50;21.17;;;22.90;99.90;;;;;;4386007;32;20148;-61
2021/06/26 07:49:21;;;;;;;24.67;20.93;;;23.40;99.90;;;;;;4382071;32;20206;-61
2021/06/26 07:51:48;;;;;;;23.97;19.40;;;24.50;99.90;;;;;;4378906;32;20195;-62
2021/06/26 07:54:17;;;;;;;21.57;18.67;;;26.10;99.30;;;;;;4379053;32;20246;-62
2021/06/26 07:56:44;;;;;;;22.10;18.62;;;27.70;96.60;;;;;;4381254;32;21151;-62
2021/06/26 07:59:18;;;;;;;22.83;16.62;;;28.50;94.70;;;;;;4377501;32;20151;-62
2021/06/26 08:01:45;;;;;;;18.30;16.15;;;29.00;93.50;;;;;;4380488;32;20152;-62
2021/06/26 08:04:12;;;;;;;19.30;15.43;;;28.80;92.70;;;;;;4383183;32;20200;-60
2021/06/26 08:06:39;;;;;;;19.17;16.15;;;28.90;92.50;;;;;;4383042;32;20707;-61
2021/06/26 08:09:06;;;;;;;20.85;16.60;;;29.30;92.00;;;;;;4379737;32;20156;-61
2021/06/26 08:11:33;;;;;;;20.33;15.98;;;29.10;90.90;;;;;;4382862;32;20171;-62
2021/06/26 08:14:00;;;;;;;17.55;14.48;;;29.30;91.20;;;;;;4382415;32;20648;-61
2021/06/26 08:16:28;;;;;;;17.65;15.35;;;29.30;90.30;;;;;;4382879;32;20149;-62
2021/06/26 08:18:55;;;;;;;16.45;14.32;;;29.30;90.00;;;;;;4382542;32;20171;-62
2021/06/26 08:21:23;;;;;;;15.82;14.13;;;29.10;89.60;;;;;;4382674;32;20199;-62
2021/06/26 08:23:53;;;;;;;16.58;14.57;;;28.90;90.30;;;;;;4382495;32;20157;-60
2021/06/26 08:26:20;;;;;;;14.45;12.95;;;28.70;90.20;;;;;;4380569;32;20580;-62
2021/06/26 08:28:47;;;;;;;15.20;13.40;;;28.90;90.10;;;;;;4380358;32;20160;-61
2021/06/26 08:31:14;;;;;;;14.73;13.13;;;29.40;89.60;;;;;;4381078;32;20243;-62
2021/06/26 08:33:42;;;;;;;14.40;12.48;;;29.90;88.80;;;;;;4382021;32;20230;-62
2021/06/26 08:36:09;;;;;;;16.52;13.15;;;30.70;88.40;;;;;;4386995;32;20160;-62
2021/06/26 08:38:36;;;;;;;14.40;12.85;;;33.70;82.80;;;;;;4387985;32;20212;-62
2021/06/26 08:41:04;;;;;;;15.43;11.73;;;38.50;70.10;;;;;;4383137;32;20178;-61
2021/06/26 08:43:30;;;;;;;13.80;10.98;;;42.20;55.40;;;;;;4381761;32;20231;-62
2021/06/26 08:46:00;;;;;;;10.65;9.65;;;44.90;47.90;;;;;;4384809;32;20171;-63
2021/06/26 08:48:27;;;;;;;13.65;12.35;;;46.70;44.80;;;;;;4389477;32;20151;-60
2021/06/26 08:50:55;;;;;;;12.55;11.38;;;48.00;41.10;;;;;;4375507;32;20208;-60
2021/06/26 08:53:23;;;;;;;13.00;11.73;;;46.60;40.80;;;;;;4377932;32;20624;-61
2021/06/26 08:55:54;;;;;;;10.77;9.30;;;47.60;39.80;;;;;;4376112;32;20213;-61
2021/06/26 08:58:21;;;;;;;10.70;9.70;;;49.30;39.50;;;;;;4372642;32;20273;-62
2021/06/26 09:00:48;;;;;;;12.32;11.12;;;48.60;37.20;;;;;;4376156;32;20582;-62
2021/06/26 09:03:17;;;;;;;12.45;11.35;;;44.50;39.00;;;;;;4386990;32;20234;-62
2021/06/26 09:05:45;;;;;;;10.57;9.68;;;40.50;43.10;;;;;;4375734;32;20157;-61
2021/06/26 09:08:15;;;;;;;10.43;9.43;;;39.20;44.30;;;;;;4375424;32;20176;-61
2021/06/26 09:10:45;;;;;;;11.68;10.50;;;39.20;45.80;;;;;;4382831;32;20178;-62
2021/06/26 09:13:17;;;;;;;11.25;10.15;;;41.80;44.30;;;;;;4384016;32;20191;-63
2021/06/26 09:15:46;;;;;;;14.02;12.45;;;44.70;41.80;;;;;;4379162;32;20565;-63
2021/06/26 09:18:16;;;;;;;13.75;12.43;;;47.30;38.50;;;;;;4390030;32;20203;-60
2021/06/26 09:20:46;;;;;;;10.38;9.48;;;48.90;37.20;;;;;;4377886;32;20238;-62
2021/06/26 09:23:32;;;;;;;13.57;12.30;;;49.80;35.90;;;;;;4381294;32;20199;-60
2021/06/26 09:26:10;;;;;;;12.20;11.12;;;50.50;34.20;;;;;;4391182;32;20156;-62
2021/06/26 09:28:38;;;;;;;12.57;11.40;;;50.50;34.50;;;;;;4383432;32;20262;-62
2021/06/26 09:31:15;;;;;;;17.80;13.07;;;50.70;33.60;;;;;;4384110;32;20258;-61
2021/06/26 09:33:42;;;;;;;15.18;13.88;;;50.70;33.60;;;;;;4382595;32;20159;-62
2021/06/26 09:36:11;;;;;;;16.95;15.23;;;50.30;33.00;;;;;;4388365;32;20648;-63
2021/06/26 09:38:55;;;;;;;16.37;14.77;;;50.10;33.30;;;;;;4379190;32;20591;-62
2021/06/26 09:41:22;;;;;;;17.70;14.80;;;49.80;33.10;;;;;;4376130;32;20159;-60
2021/06/26 09:43:48;;;;;;;15.15;13.68;;;49.50;33.80;;;;;;4385156;32;20182;-62
2021/06/26 09:46:19;;;;;;;16.67;14.90;;;49.90;33.80;;;;;;4384659;32;20188;-61
2021/06/26 09:48:50;;;;;;;13.55;12.20;;;49.30;34.20;;;;;;4380852;32;20567;-62
2021/06/26 09:51:19;;;;;;;14.38;13.02;;;49.10;33.40;;;;;;4379738;32;20164;-61
2021/06/26 09:53:59;;;;;;;17.85;16.02;;;48.50;33.90;;;;;;4374901;32;20549;-61
2021/06/26 09:56:38;;;;;;;16.05;14.48;;;46.00;34.70;;;;;;4378914;32;20152;-61
2021/06/26 09:59:05;;;;;;;18.17;15.27;;;42.30;36.90;;;;;;4384762;32;20144;-62
2021/06/26 10:01:35;;;;;;;16.83;15.18;;;38.60;42.00;;;;;;4387420;32;20190;-62
2021/06/26 10:04:04;;;;;;;14.05;12.60;;;36.00;44.00;;;;;;4379862;32;20166;-61
2021/06/26 10:06:34;;;;;;;16.73;15.02;;;34.10;46.50;;;;;;4392955;32;20220;-60
2021/06/26 10:09:03;;;;;;;15.40;13.88;;;32.30;46.60;;;;;;4387437;32;20570;-59
2021/06/26 10:11:34;;;;;;;15.10;13.70;;;31.10;50.40;;;;;;4391917;32;20164;-61
2021/06/26 10:14:04;;;;;;;14.65;13.20;;;30.10;51.10;;;;;;4378946;32;20619;-60
2021/06/26 10:16:32;;;;;;;14.93;13.43;;;29.90;54.80;;;;;;4391495;32;20176;-59
2021/06/26 10:19:01;;;;;;;12.93;11.73;;;29.90;52.90;;;;;;4390055;32;20602;-61
2021/06/26 10:21:29;;;;;;;14.10;12.65;;;29.90;54.30;;;;;;4388602;32;20580;-60
2021/06/26 10:23:57;;;;;;;15.85;14.30;;;29.80;54.50;;;;;;4385831;32;20168;-61
2021/06/26 10:26:25;;;;;;;13.50;11.75;;;29.50;53.30;;;;;;4377784;32;20228;-60
2021/06/26 10:28:59;;;;;;;13.98;12.18;;;29.20;56.90;;;;;;4385898;32;20183;-62
2021/06/26 10:31:31;;;;;;;13.45;11.88;;;29.10;56.20;;;;;;4386666;32;20149;-60
2021/06/26 10:34:13;;;;;;;12.13;10.93;;;29.00;58.00;;;;;;4389849;32;20147;-61
2021/06/26 10:36:44;;;;;;;17.33;15.63;;;29.10;57.60;;;;;;4389495;32;20474;-61
2021/06/26 10:39:19;;;;;;;16.80;13.23;;;29.10;57.60;;;;;;4383611;32;20506;-61
2021/06/26 10:42:00;;;;;;;13.82;12.37;;;29.10;57.10;;;;;;4382243;32;20147;-61
2021/06/26 10:44:39;;;;;;;15.73;11.45;;;29.00;57.40;;;;;;4391602;32;20480;-61
2021/06/26 10:47:05;;;;;;;12.32;10.98;;;28.90;57.10;;;;;;4390432;32;20159;-60
2021/06/26 10:49:32;;;;;;;14.57;12.27;;;28.80;58.30;;;;;;4391979;32;20152;-61
2021/06/26 10:52:08;;;;;;;14.60;11.80;;;28.90;57.50;;;;;;4383105;32;20175;-60
2021/06/26 10:54:36;;;;;;;13.85;12.18;;;29.00;56.90;;;;;;4377181;32;20211;-62
2021/06/26 10:57:06;;;;;;;16.35;13.90;;;29.20;57.00;;;;;;4377407;32;20149;-59
2021/06/26 10:59:34;;;;;;;14.63;13.18;;;28.90;57.10;;;;;;4377863;32;20180;-61
2021/06/26 11:02:03;;;;;;;16.60;14.65;;;29.10;57.80;;;;;;4377177;32;20194;-60
2021/06/26 11:04:31;;;;;;;17.92;14.68;;;29.40;56.70;;;;;;4377487;32;20473;-60
2021/06/26 11:07:06;;;;;;;15.57;13.98;;;29.20;57.30;;;;;;4377330;32;20572;-61
2021/06/26 11:09:37;;;;;;;15.13;13.52;;;29.20;57.10;;;;;;4381254;32;20701;-60
2021/06/26 11:12:11;;;;;;;15.30;13.73;;;29.10;56.30;;;;;;4381765;32;20171;-61
2021/06/26 11:14:48;;;;;;;18.33;15.02;;;29.10;57.30;;;;;;4378355;32;20164;-60
2021/06/26 11:17:15;;;;;;;16.08;14.00;;;29.10;57.20;;;;;;4388718;32;20168;-61
2021/06/26 11:19:42;;;;;;;15.65;13.85;;;29.30;58.00;;;;;;4383553;32;20224;-61
2021/06/26 11:22:09;;;;;;;13.90;12.52;;;29.20;57.50;;;;;;4383899;32;20188;-61
2021/06/26 11:24:37;;;;;;;16.42;14.27;;;28.80;58.80;;;;;;4383422;32;20156;-60
2021/06/26 11:27:06;;;;;;;16.90;12.90;;;28.50;59.30;;;;;;4384377;32;20646;-61
2021/06/26 11:29:36;;;;;;;15.40;13.35;;;28.70;60.10;;;;;;4381682;32;20194;-59
2021/06/26 11:32:06;;;;;;;15.07;13.48;;;29.00;59.10;;;;;;4388555;32;20159;-61
2021/06/26 11:34:33;;;;;;;15.07;13.65;;;29.10;59.90;;;;;;4374902;32;20191;-62
2021/06/26 11:37:04;;;;;;;16.00;14.02;;;29.20;57.60;;;;;;4377727;32;20160;-62
2021/06/26 11:39:32;;;;;;;13.25;11.95;;;29.20;57.60;;;;;;4377721;32;20156;-60
2021/06/26 11:42:00;;;;;;;10.75;9.65;;;29.20;59.40;;;;;;4376865;32;20178;-60
2021/06/26 11:44:36;;;;;;;12.85;11.23;;;29.20;59.90;;;;;;4383931;32;20216;-62
2021/06/26 11:47:06;;;;;;;11.88;10.55;;;28.90;58.70;;;;;;4384620;32;20223;-61
2021/06/26 11:49:37;;;;;;;12.23;10.93;;;28.50;60.00;;;;;;4382888;32;20266;-60
2021/06/26 11:52:08;;;;;;;15.70;11.60;;;28.40;58.40;;;;;;4380875;32;20626;-61
2021/06/26 11:54:35;;;;;;;12.65;11.45;;;28.30;58.50;;;;;;4376506;32;20156;-58
2021/06/26 11:57:02;;;;;;;12.75;10.23;;;28.60;58.80;;;;;;4377969;32;20588;-60
2021/06/26 11:59:43;;;;;;;14.02;10.55;;;29.10;58.70;;;;;;4376165;32;20220;-60
2021/06/26 12:02:11;;;;;;;12.90;11.60;;;29.40;56.50;;;;;;4376344;32;20626;-61
2021/06/26 12:04:38;;;;;;;11.65;10.45;;;29.10;56.30;;;;;;4376185;32;20145;-60
2021/06/26 12:07:06;;;;;;;11.50;9.90;;;28.90;58.80;;;;;;4377424;32;20137;-61
2021/06/26 12:09:33;;;;;;;14.65;13.10;;;29.00;58.30;;;;;;4387572;32;20163;-60
2021/06/26 12:12:00;;;;;;;13.90;10.65;;;29.00;57.00;;;;;;4390703;32;20616;-61
2021/06/26 12:14:31;;;;;;;15.45;12.60;;;28.90;58.40;;;;;;4378027;32;20172;-60
2021/06/26 12:17:16;;;;;;;12.98;11.55;;;28.80;58.40;;;;;;4376148;32;20157;-61
2021/06/26 12:19:42;;;;;;;11.43;10.38;;;28.90;57.40;;;;;;4376181;32;20167;-60
2021/06/26 12:22:19;;;;;;;12.18;10.98;;;29.00;58.90;;;;;;4376130;32;20155;-61
2021/06/26 12:24:46;;;;;;;14.25;12.80;;;29.10;57.60;;;;;;4375718;32;20144;-60
2021/06/26 12:27:19;;;;;;;13.10;11.80;;;29.30;58.00;;;;;;4376156;32;20137;-61
2021/06/26 12:29:54;;;;;;;12.90;11.52;;;29.60;58.10;;;;;;4383967;32;20610;-60
2021/06/26 12:32:28;;;;;;;12.37;11.12;;;29.50;57.20;;;;;;4376195;32;20140;-60
2021/06/26 12:34:55;;;;;;;13.73;12.23;;;29.40;57.60;;;;;;4375650;32;20204;-62